createdAt,value
2018-01-11T00:01:35.425Z,60.93
2018-01-11T00:04:01.788Z,62.90
2018-01-11T00:06:28.217Z,60.43
2018-01-11T00:08:54.643Z,54.17
2018-01-11T00:11:21.003Z,52.03
2018-01-11T00:13:47.344Z,52.37
2018-01-11T00:16:13.711Z,51.70
2018-01-11T00:18:40.100Z,65.47
2018-01-11T00:21:06.460Z,61.43
2018-01-11T00:23:32.961Z,59.27
2018-01-11T00:25:59.367Z,60.03
2018-01-11T00:28:25.706Z,53.03
2018-01-11T00:30:52.140Z,58.37
2018-01-11T00:33:18.613Z,55.60
2018-01-11T00:35:45.151Z,51.07
2018-01-11T00:38:11.602Z,50.17
2018-01-11T00:40:38.040Z,51.70
2018-01-11T00:43:04.400Z,50.40
2018-01-11T00:45:30.991Z,47.77
2018-01-11T00:47:57.435Z,42.00
2018-01-11T00:50:23.795Z,41.70
2018-01-11T00:52:50.146Z,38.37
2018-01-11T00:55:16.592Z,40.07
2018-01-11T00:57:42.963Z,45.30
2018-01-11T01:00:09.371Z,42.80
2018-01-11T01:02:35.827Z,50.23
2018-01-11T01:05:02.292Z,42.67
2018-01-11T01:07:28.703Z,48.37
2018-01-11T01:09:55.195Z,43.07
2018-01-11T01:12:21.535Z,49.03
2018-01-11T01:14:48.003Z,55.77
2018-01-11T01:17:14.481Z,45.90
2018-01-11T01:19:40.891Z,47.13
2018-01-11T01:22:07.263Z,45.83
2018-01-11T01:24:33.740Z,45.90
2018-01-11T01:27:00.144Z,49.03
2018-01-11T01:29:26.544Z,47.50
2018-01-11T01:31:53.080Z,43.53
2018-01-11T01:34:19.551Z,36.03
2018-01-11T01:36:45.883Z,46.63
2018-01-11T01:39:12.316Z,44.47
2018-01-11T01:41:38.813Z,43.47
2018-01-11T01:44:05.216Z,45.27
2018-01-11T01:46:31.667Z,55.57
2018-01-11T01:48:58.144Z,48.47
2018-01-11T01:51:24.567Z,55.00
2018-01-11T01:53:51.023Z,52.13
2018-01-11T01:56:17.451Z,65.47
2018-01-11T01:58:43.852Z,65.30
2018-01-11T02:01:10.186Z,65.83
2018-01-11T02:03:36.647Z,64.87
2018-01-11T02:06:03.046Z,81.47
2018-01-11T02:08:29.452Z,66.47
2018-01-11T02:10:55.912Z,76.23
2018-01-11T02:13:22.329Z,75.20
2018-01-11T02:15:48.699Z,73.87
2018-01-11T02:18:15.143Z,77.67
2018-01-11T02:20:41.520Z,62.33
2018-01-11T02:23:07.924Z,66.13
2018-01-11T02:25:34.555Z,65.30
2018-01-11T02:28:00.943Z,70.43
2018-01-11T02:30:27.376Z,65.67
2018-01-11T02:32:53.810Z,67.13
2018-01-11T02:35:20.224Z,75.03
2018-01-11T02:37:46.652Z,67.67
2018-01-11T02:40:13.065Z,70.80
2018-01-11T02:42:39.472Z,63.20
2018-01-11T02:45:05.923Z,62.63
2018-01-11T02:47:32.315Z,62.93
2018-01-11T02:49:58.776Z,67.70
2018-01-11T02:52:25.150Z,74.03
2018-01-11T02:54:51.504Z,72.83
2018-01-11T02:57:18.022Z,84.77
2018-01-11T02:59:44.408Z,70.57
2018-01-11T03:02:10.824Z,69.10
2018-01-11T03:04:37.248Z,68.63
2018-01-11T03:07:03.687Z,70.50
2018-01-11T03:09:30.087Z,64.97
2018-01-11T03:11:56.504Z,70.30
2018-01-11T03:14:22.920Z,70.90
2018-01-11T03:16:49.307Z,67.00
2018-01-11T03:19:15.654Z,64.70
2018-01-11T03:21:42.046Z,69.30
2018-01-11T03:24:08.452Z,67.10
2018-01-11T03:26:34.808Z,71.70
2018-01-11T03:29:01.149Z,64.43
2018-01-11T03:31:27.744Z,64.47
2018-01-11T03:33:54.112Z,59.23
2018-01-11T03:36:20.568Z,56.10
2018-01-11T03:38:46.972Z,61.57
2018-01-11T03:41:13.402Z,54.20
2018-01-11T03:43:39.788Z,52.00
2018-01-11T03:46:06.152Z,69.07
2018-01-11T03:48:32.587Z,57.00
2018-01-11T03:50:59.068Z,57.20
2018-01-11T03:53:25.504Z,60.30
2018-01-11T03:55:51.927Z,59.30
2018-01-11T03:58:18.257Z,58.13
2018-01-11T04:00:44.639Z,65.40
2018-01-11T04:03:11.071Z,50.17
2018-01-11T04:05:37.515Z,52.20
2018-01-11T04:08:03.876Z,55.13
2018-01-11T04:10:30.295Z,54.77
2018-01-11T04:12:56.631Z,60.57
2018-01-11T04:15:23.035Z,55.70
2018-01-11T04:17:49.476Z,58.53
2018-01-11T04:20:15.955Z,58.67
2018-01-11T04:22:42.354Z,57.03
2018-01-11T04:25:08.755Z,56.77
2018-01-11T04:27:35.188Z,56.83
2018-01-11T04:30:01.567Z,61.83
2018-01-11T04:32:28.227Z,60.57
2018-01-11T04:34:54.579Z,62.73
2018-01-11T04:37:20.987Z,62.13
2018-01-11T04:39:47.427Z,62.57
2018-01-11T04:42:13.827Z,49.67
2018-01-11T04:44:40.271Z,61.80
2018-01-11T04:47:06.691Z,59.63
2018-01-11T04:49:33.066Z,56.63
2018-01-11T04:51:59.456Z,52.00
2018-01-11T04:54:25.879Z,51.03
2018-01-11T04:56:52.312Z,50.07
2018-01-11T04:59:18.752Z,50.30
2018-01-11T05:01:45.217Z,51.20
2018-01-11T05:04:11.599Z,52.23
2018-01-11T05:06:38.085Z,51.90
2018-01-11T05:09:04.488Z,64.63
2018-01-11T05:11:30.847Z,61.30
2018-01-11T05:13:57.303Z,64.83
2018-01-11T05:16:23.767Z,60.90
2018-01-11T05:18:50.130Z,64.70
2018-01-11T05:21:16.556Z,59.30
2018-01-11T05:23:42.988Z,72.47
2018-01-11T05:26:09.523Z,72.63
2018-01-11T05:28:35.882Z,70.07
2018-01-11T05:31:02.324Z,63.10
2018-01-11T05:33:28.808Z,61.77
2018-01-11T05:35:55.169Z,61.50
2018-01-11T05:38:21.584Z,59.77
2018-01-11T05:40:47.951Z,57.90
2018-01-11T05:43:14.340Z,49.83
2018-01-11T05:45:40.852Z,49.30
2018-01-11T05:48:07.244Z,59.77
2018-01-11T05:50:33.603Z,55.90
2018-01-11T05:53:00.064Z,60.73
2018-01-11T05:55:26.476Z,56.47
2018-01-11T05:57:52.875Z,61.37
2018-01-11T06:00:19.231Z,48.77
2018-01-11T06:02:45.744Z,57.33
2018-01-11T06:05:12.175Z,68.90
2018-01-11T06:07:38.575Z,72.80
2018-01-11T06:10:04.923Z,68.87
2018-01-11T06:12:31.426Z,67.67
2018-01-11T06:14:57.828Z,56.83
2018-01-11T06:17:24.263Z,54.27
2018-01-11T06:19:50.775Z,50.30
2018-01-11T06:22:17.136Z,51.53
2018-01-11T06:24:43.600Z,41.60
2018-01-11T06:27:10.281Z,45.00
2018-01-11T06:29:36.688Z,46.60
2018-01-11T06:32:03.165Z,44.87
2018-01-11T06:34:29.626Z,44.47
2018-01-11T06:36:56.064Z,46.83
2018-01-11T06:39:22.551Z,50.30
2018-01-11T06:41:48.981Z,57.47
2018-01-11T06:44:15.423Z,54.50
2018-01-11T06:46:41.860Z,59.37
2018-01-11T06:49:08.211Z,65.93
2018-01-11T06:51:34.699Z,67.10
2018-01-11T06:54:01.092Z,65.07
2018-01-11T06:56:27.499Z,62.10
2018-01-11T06:58:53.832Z,60.30
2018-01-11T07:01:20.179Z,59.93
2018-01-11T07:03:46.573Z,62.70
2018-01-11T07:06:12.924Z,58.53
2018-01-11T07:08:39.291Z,49.30
2018-01-11T07:11:05.760Z,48.63
2018-01-11T07:13:32.235Z,49.07
2018-01-11T07:15:58.671Z,46.20
2018-01-11T07:18:25.123Z,55.17
2018-01-11T07:20:51.615Z,56.57
2018-01-11T07:23:17.967Z,55.70
2018-01-11T07:25:44.411Z,64.67
2018-01-11T07:28:10.779Z,75.33
2018-01-11T07:30:37.179Z,70.50
2018-01-11T07:33:03.589Z,69.13
2018-01-11T07:35:29.952Z,77.77
2018-01-11T07:37:56.311Z,91.37
2018-01-11T07:40:22.767Z,79.90
2018-01-11T07:42:49.308Z,71.90
2018-01-11T07:45:15.686Z,67.93
2018-01-11T07:47:42.167Z,62.53
2018-01-11T07:50:08.626Z,54.80
2018-01-11T07:52:35.115Z,58.13
2018-01-11T07:55:01.581Z,53.13
2018-01-11T07:57:28.014Z,56.03
2018-01-11T07:59:54.378Z,53.57
2018-01-11T08:02:20.916Z,45.30
2018-01-11T08:04:47.317Z,46.77
2018-01-11T08:07:13.697Z,47.77
2018-01-11T08:09:40.108Z,53.10
2018-01-11T08:12:06.558Z,58.60
2018-01-11T08:14:33.049Z,53.03
2018-01-11T08:16:59.540Z,44.53
2018-01-11T08:32:30.790Z,45.57
2018-01-11T08:34:57.138Z,47.73
2018-01-11T08:37:23.527Z,47.43
2018-01-11T08:39:49.904Z,58.00
2018-01-11T08:42:16.259Z,53.37
2018-01-11T08:44:42.704Z,61.70
2018-01-11T08:47:09.052Z,57.33
2018-01-11T08:49:35.479Z,65.97
2018-01-11T08:52:01.927Z,55.33
2018-01-11T08:54:28.315Z,51.30
2018-01-11T08:56:54.735Z,63.17
2018-01-11T08:59:21.112Z,52.97
2018-01-11T09:01:47.451Z,47.77
2018-01-11T09:04:13.903Z,47.50
2018-01-11T09:06:40.283Z,50.33
2018-01-11T09:09:06.667Z,56.83
2018-01-11T09:11:33.052Z,53.20
2018-01-11T09:13:59.433Z,45.90
2018-01-11T09:16:25.856Z,44.50
2018-01-11T09:18:52.375Z,45.93
2018-01-11T09:21:18.743Z,48.50
2018-01-11T09:23:45.059Z,48.13
2018-01-11T09:26:11.448Z,37.83
2018-01-11T09:28:37.824Z,42.27
2018-01-11T09:31:04.220Z,45.03
2018-01-11T09:33:30.718Z,36.67
2018-01-11T09:35:57.260Z,45.47
2018-01-11T09:38:23.647Z,55.67
2018-01-11T09:40:49.992Z,45.57
2018-01-11T09:43:16.431Z,47.27
2018-01-11T09:45:42.843Z,77.63
2018-01-11T09:48:09.262Z,43.90
2018-01-11T09:50:35.631Z,42.70
2018-01-11T09:53:02.112Z,60.00
2018-01-11T09:55:28.471Z,51.23
2018-01-11T09:57:54.895Z,43.17
2018-01-11T10:00:21.483Z,40.50
2018-01-11T10:02:47.917Z,42.63
2018-01-11T10:05:14.331Z,37.13
2018-01-11T10:07:40.711Z,40.70
2018-01-11T10:10:07.116Z,42.93
2018-01-11T10:12:33.666Z,46.07
2018-01-11T10:15:00.208Z,40.17
2018-01-11T10:17:26.580Z,44.23
2018-01-11T10:19:52.976Z,42.10
2018-01-11T10:22:19.382Z,48.33
2018-01-11T10:24:45.991Z,46.90
2018-01-11T10:27:12.387Z,47.03
2018-01-11T10:29:38.939Z,47.80
2018-01-11T10:32:05.500Z,50.33
2018-01-11T10:34:31.991Z,46.40
2018-01-11T10:36:58.427Z,48.37
2018-01-11T10:39:24.775Z,44.77
2018-01-11T10:41:51.184Z,42.30
2018-01-11T10:44:17.608Z,44.77
2018-01-11T10:46:44.024Z,45.47
2018-01-11T10:49:10.424Z,40.43
2018-01-11T10:51:36.844Z,48.73
2018-01-11T10:54:03.300Z,50.17
2018-01-11T10:56:29.744Z,46.53
2018-01-11T10:58:56.300Z,51.23
2018-01-11T11:01:28.923Z,46.33
2018-01-11T11:03:55.428Z,48.40
2018-01-11T11:06:21.824Z,45.47
2018-01-11T11:08:48.170Z,38.57
2018-01-11T11:11:14.539Z,41.77
2018-01-11T11:13:40.935Z,39.93
2018-01-11T11:16:07.427Z,39.93
2018-01-11T11:18:33.768Z,39.40
2018-01-11T11:21:00.168Z,45.30
2018-01-11T11:23:26.566Z,47.73
2018-01-11T11:25:53.100Z,44.30
2018-01-11T11:28:19.453Z,44.83
2018-01-11T11:30:45.892Z,46.40
2018-01-11T11:33:12.389Z,37.90
2018-01-11T11:35:38.710Z,35.47
2018-01-11T11:38:05.046Z,39.23
2018-01-11T11:40:31.620Z,33.67
2018-01-11T11:42:57.984Z,32.73
2018-01-11T11:45:24.395Z,38.73
2018-01-11T11:47:50.764Z,38.63
2018-01-11T11:50:17.154Z,43.17
2018-01-11T11:52:43.519Z,40.13
2018-01-11T11:55:09.931Z,40.27
2018-01-11T11:57:37.523Z,35.77
2018-01-11T12:00:03.907Z,38.50
2018-01-11T12:02:30.322Z,42.00
2018-01-11T12:04:56.759Z,38.83
2018-01-11T12:07:23.143Z,37.50
2018-01-11T12:09:49.614Z,38.13
2018-01-11T12:12:15.987Z,39.03
2018-01-11T12:14:42.407Z,39.67
2018-01-11T12:17:08.899Z,35.40
2018-01-11T12:19:35.289Z,34.93
2018-01-11T12:22:01.646Z,31.37
2018-01-11T12:24:31.531Z,34.50
2018-01-11T12:26:57.971Z,35.47
2018-01-11T12:29:24.423Z,36.83
2018-01-11T12:31:50.896Z,42.07
2018-01-11T12:34:17.323Z,44.50
2018-01-11T12:36:43.699Z,41.13
2018-01-11T12:39:10.145Z,40.50
2018-01-11T12:41:36.552Z,38.23
2018-01-11T12:44:03.092Z,37.20
2018-01-11T12:46:29.512Z,37.83
2018-01-11T12:48:55.844Z,34.37
2018-01-11T12:51:22.240Z,41.30
2018-01-11T12:53:48.607Z,35.03
2018-01-11T12:56:14.932Z,38.33
2018-01-11T12:58:41.279Z,37.37
2018-01-11T13:01:07.704Z,43.97
2018-01-11T13:03:34.095Z,52.67
2018-01-11T13:06:00.420Z,47.47
2018-01-11T13:08:26.836Z,55.27
2018-01-11T13:10:53.219Z,38.77
2018-01-11T13:13:19.623Z,40.80
2018-01-11T13:15:46.047Z,40.97
2018-01-11T13:18:12.411Z,40.83
2018-01-11T13:20:38.805Z,38.97
2018-01-11T13:23:05.214Z,40.83
2018-01-11T13:25:31.691Z,42.80
2018-01-11T13:27:58.113Z,35.10
2018-01-11T13:30:24.512Z,46.77
2018-01-11T13:32:50.990Z,61.43
2018-01-11T13:35:17.360Z,46.17
2018-01-11T13:37:43.752Z,41.87
2018-01-11T13:40:10.191Z,34.87
2018-01-11T13:42:36.515Z,35.83
2018-01-11T13:45:02.888Z,38.73
2018-01-11T13:47:29.256Z,30.47
2018-01-11T13:49:55.634Z,34.70
2018-01-11T13:52:22.048Z,37.80
2018-01-11T13:54:48.428Z,33.93
2018-01-11T13:57:14.791Z,30.60
2018-01-11T13:59:41.171Z,33.00
2018-01-11T14:02:07.571Z,36.23
2018-01-11T14:04:34.103Z,36.43
2018-01-11T14:07:00.496Z,45.97
2018-01-11T14:09:26.884Z,43.07
2018-01-11T14:11:53.299Z,41.67
2018-01-11T14:14:19.668Z,41.70
2018-01-11T14:16:46.030Z,30.87
2018-01-11T14:19:12.399Z,32.67
2018-01-11T14:21:38.839Z,33.17
2018-01-11T14:24:05.449Z,36.37
2018-01-11T14:26:31.848Z,38.33
2018-01-11T14:28:58.336Z,38.37
2018-01-11T14:31:24.736Z,41.67
2018-01-11T14:33:51.115Z,40.03
2018-01-11T14:36:17.522Z,33.93
2018-01-11T14:38:43.968Z,41.70
2018-01-11T14:41:10.344Z,49.37
2018-01-11T14:43:36.683Z,47.80
2018-01-11T14:46:03.097Z,38.27
2018-01-11T14:48:29.456Z,43.00
2018-01-11T14:50:55.811Z,37.57
2018-01-11T14:53:22.218Z,39.23
2018-01-11T14:55:48.876Z,33.60
2018-01-11T14:58:15.224Z,31.47
2018-01-11T15:00:41.623Z,38.70
2018-01-11T15:03:08.056Z,50.17
2018-01-11T15:05:34.484Z,65.70
2018-01-11T15:08:00.871Z,63.67
2018-01-11T15:10:27.266Z,59.07
2018-01-11T15:12:53.659Z,45.23
2018-01-11T15:15:20.104Z,44.63
2018-01-11T15:17:46.494Z,44.07
2018-01-11T15:20:12.833Z,71.90
2018-01-11T15:22:39.307Z,71.50
2018-01-11T15:25:05.731Z,71.80
2018-01-11T15:27:32.171Z,64.87
2018-01-11T15:29:58.555Z,54.87
2018-01-11T15:32:24.948Z,55.93
2018-01-11T15:34:51.304Z,65.83
2018-01-11T15:37:17.731Z,75.53
2018-01-11T15:39:44.130Z,69.93
2018-01-11T15:42:10.632Z,70.30
2018-01-11T15:44:37.052Z,66.07
2018-01-11T15:47:03.432Z,67.73
2018-01-11T15:49:29.816Z,69.13
2018-01-11T15:51:56.160Z,68.37
2018-01-11T15:54:22.579Z,66.93
2018-01-11T15:56:48.955Z,70.33
2018-01-11T15:59:15.348Z,66.07
2018-01-11T16:01:41.723Z,61.87
2018-01-11T16:04:08.139Z,66.03
2018-01-11T16:06:34.524Z,63.07
2018-01-11T16:09:00.920Z,63.60
2018-01-11T16:11:27.367Z,67.47
2018-01-11T16:13:53.800Z,65.30
2018-01-11T16:16:20.204Z,65.83
2018-01-11T16:18:46.608Z,67.00
2018-01-11T16:21:13.072Z,63.67
2018-01-11T16:23:39.475Z,62.77
2018-01-11T16:26:05.931Z,65.60
2018-01-11T16:28:32.315Z,61.73
2018-01-11T16:30:58.734Z,71.90
2018-01-11T16:33:25.148Z,75.97
2018-01-11T16:35:51.519Z,70.97
2018-01-11T16:38:17.943Z,73.93
2018-01-11T16:40:44.403Z,70.67
2018-01-11T16:43:10.815Z,80.00
2018-01-11T16:45:37.207Z,73.23
2018-01-11T16:48:03.555Z,73.77
2018-01-11T16:50:29.980Z,77.07
2018-01-11T16:52:56.367Z,75.80
2018-01-11T16:55:22.752Z,77.07
2018-01-11T16:57:49.242Z,87.13
2018-01-11T17:00:15.644Z,83.67
2018-01-11T17:02:42.078Z,81.17
2018-01-11T17:05:08.495Z,74.77
2018-01-11T17:07:34.872Z,73.30
2018-01-11T17:10:01.300Z,72.33
2018-01-11T17:12:27.734Z,77.67
2018-01-11T17:14:54.377Z,87.30
2018-01-11T17:17:20.868Z,89.90
2018-01-11T17:19:47.260Z,94.33
2018-01-11T17:22:13.669Z,99.50
2018-01-11T17:24:40.128Z,97.97
2018-01-11T17:27:06.528Z,96.37
2018-01-11T17:29:32.988Z,99.83
2018-01-11T17:32:00.428Z,97.53
2018-01-11T17:34:26.826Z,101.03
2018-01-11T17:36:53.192Z,106.03
2018-01-11T17:39:19.704Z,92.87
2018-01-11T17:41:46.043Z,107.10
2018-01-11T17:44:12.550Z,116.23
2018-01-11T17:46:39.000Z,117.57
2018-01-11T17:49:05.421Z,111.77
2018-01-11T17:51:31.820Z,105.67
2018-01-11T17:53:58.181Z,98.37
2018-01-11T17:56:24.616Z,113.40
2018-01-11T17:58:50.990Z,105.23
2018-01-11T18:01:17.405Z,103.10
2018-01-11T18:03:43.820Z,110.33
2018-01-11T18:06:10.187Z,109.73
2018-01-11T18:08:36.580Z,105.50
2018-01-11T18:11:03.023Z,103.13
2018-01-11T18:13:29.416Z,103.00
2018-01-11T18:15:55.768Z,96.77
2018-01-11T18:18:22.459Z,97.37
2018-01-11T18:20:49.243Z,90.20
2018-01-11T18:23:16.092Z,97.50
2018-01-11T18:25:42.556Z,92.90
2018-01-11T18:28:08.929Z,87.73
2018-01-11T18:30:35.343Z,88.80
2018-01-11T18:33:01.833Z,102.13
2018-01-11T18:35:28.224Z,105.37
2018-01-11T18:37:54.612Z,113.73
2018-01-11T18:40:21.082Z,105.80
2018-01-11T18:42:47.535Z,100.73
2018-01-11T18:45:13.963Z,95.97
2018-01-11T18:47:40.376Z,93.97
2018-01-11T18:50:06.824Z,97.50
2018-01-11T18:52:33.199Z,91.43
2018-01-11T18:54:59.624Z,88.03
2018-01-11T18:57:26.067Z,93.30
2018-01-11T18:59:52.489Z,105.80
2018-01-11T19:02:18.920Z,100.20
2018-01-11T19:04:45.344Z,100.83
2018-01-11T19:07:11.740Z,95.03
2018-01-11T19:09:38.174Z,85.47
2018-01-11T19:12:04.615Z,81.13
2018-01-11T19:14:31.024Z,80.23
2018-01-11T19:16:57.505Z,80.17
2018-01-11T19:19:23.936Z,70.80
2018-01-11T19:21:50.321Z,75.37
2018-01-11T19:24:16.749Z,77.93
2018-01-11T19:26:43.236Z,75.47
2018-01-11T19:29:09.636Z,72.00
2018-01-11T19:31:36.084Z,74.83
2018-01-11T19:36:35.848Z,79.07
2018-01-11T19:39:02.356Z,78.87
2018-01-11T19:41:28.856Z,81.27
2018-01-11T19:43:55.303Z,89.90
2018-01-11T19:46:21.696Z,77.17
2018-01-11T19:48:48.092Z,76.07
2018-01-11T19:51:14.576Z,70.17
2018-01-11T19:53:40.981Z,70.07
2018-01-11T19:56:07.439Z,68.10
2018-01-11T19:58:33.927Z,66.53
2018-01-11T20:01:00.299Z,64.50
2018-01-11T20:03:26.676Z,62.67
2018-01-11T20:05:53.079Z,66.23
2018-01-11T20:08:19.580Z,61.60
2018-01-11T20:10:46.023Z,67.27
2018-01-11T20:13:12.356Z,67.23
2018-01-11T20:15:38.755Z,77.50
2018-01-11T20:18:05.220Z,69.53
2018-01-11T20:20:31.652Z,77.13
2018-01-11T20:22:58.029Z,66.60
2018-01-11T20:25:24.435Z,73.67
2018-01-11T20:27:50.889Z,69.23
2018-01-11T20:30:17.290Z,72.30
2018-01-11T20:32:43.651Z,65.73
2018-01-11T20:35:10.025Z,59.97
2018-01-11T20:37:37.257Z,65.50
2018-01-11T20:40:03.860Z,69.73
2018-01-11T20:42:30.232Z,74.20
2018-01-11T20:44:56.595Z,76.87
2018-01-11T20:47:23.075Z,75.73
2018-01-11T20:49:49.467Z,76.07
2018-01-11T20:52:15.887Z,77.57
2018-01-11T20:54:42.283Z,81.17
2018-01-11T20:57:08.712Z,82.47
2018-01-11T20:59:35.060Z,80.20
2018-01-11T21:02:01.438Z,77.37
2018-01-11T21:04:27.900Z,75.07
2018-01-11T21:06:54.304Z,79.57
2018-01-11T21:09:20.632Z,79.07
2018-01-11T21:11:47.044Z,76.03
2018-01-11T21:14:13.503Z,75.03
2018-01-11T21:16:39.999Z,81.57
2018-01-11T21:19:06.411Z,78.13
2018-01-11T21:21:32.759Z,80.07
2018-01-11T21:23:59.147Z,70.10
2018-01-11T21:26:25.626Z,66.00
2018-01-11T21:28:51.983Z,68.63
2018-01-11T21:31:18.324Z,61.00
2018-01-11T21:33:44.717Z,61.07
2018-01-11T21:36:11.112Z,59.03
2018-01-11T21:38:37.511Z,56.03
2018-01-11T21:41:03.979Z,63.57
2018-01-11T21:43:30.347Z,57.40
2018-01-11T21:45:56.699Z,62.30
2018-01-11T21:48:23.132Z,58.63
2018-01-11T21:50:49.527Z,60.63
2018-01-11T21:53:15.919Z,62.67
2018-01-11T21:55:42.363Z,62.53
2018-01-11T21:58:08.756Z,57.93
2018-01-11T22:00:35.146Z,58.73
2018-01-11T22:03:01.552Z,58.10
2018-01-11T22:05:28.008Z,54.93
2018-01-11T22:07:54.486Z,52.63
2018-01-11T22:10:20.827Z,54.73
2018-01-11T22:12:47.223Z,54.67
2018-01-11T22:15:13.603Z,54.93
2018-01-11T22:17:40.071Z,62.73
2018-01-11T22:20:06.476Z,56.13
2018-01-11T22:22:32.836Z,64.97
2018-01-11T22:24:59.266Z,52.13
2018-01-11T22:27:25.655Z,50.70
2018-01-11T22:29:52.043Z,58.00
2018-01-11T22:32:18.460Z,52.60
2018-01-11T22:34:44.843Z,51.73
2018-01-11T22:37:11.280Z,57.43
2018-01-11T22:39:37.711Z,54.87
2018-01-11T22:42:04.144Z,49.57
2018-01-11T22:44:30.504Z,51.40
2018-01-11T22:46:56.887Z,54.77
2018-01-11T22:49:23.335Z,51.87
2018-01-11T22:51:49.691Z,50.67
2018-01-11T22:54:16.028Z,55.00
2018-01-11T22:56:42.514Z,45.73
2018-01-11T22:59:08.895Z,50.63
2018-01-11T23:01:35.352Z,47.77
2018-01-11T23:04:01.732Z,51.40
2018-01-11T23:06:28.151Z,47.90
2018-01-11T23:08:54.656Z,50.87
2018-01-11T23:11:27.048Z,52.00
2018-01-11T23:13:53.378Z,50.10
2018-01-11T23:16:19.768Z,49.37
2018-01-11T23:18:46.295Z,53.03
2018-01-11T23:21:12.807Z,48.87
2018-01-11T23:23:39.278Z,50.63
2018-01-11T23:26:05.640Z,48.07
2018-01-11T23:28:32.080Z,48.90
2018-01-11T23:30:58.533Z,53.77
2018-01-11T23:33:24.985Z,53.07
2018-01-11T23:35:51.363Z,49.83
2018-01-11T23:38:17.809Z,48.40
2018-01-11T23:40:44.224Z,50.50
2018-01-11T23:43:10.589Z,52.13
2018-01-11T23:45:37.016Z,52.53
2018-01-11T23:48:03.413Z,52.03
2018-01-11T23:50:29.837Z,51.77
2018-01-11T23:52:56.240Z,49.90
2018-01-11T23:55:22.669Z,49.70
2018-01-11T23:57:49.099Z,55.10
